sensor_id;sensor_type;location;lat;lon;timestamp;P1;durP1;ratioP1;P2;durP2;ratioP2
55758;SDS011;41678;52.126;20.664;2023-06-26T00:04:50;11.55;;;5.45;;
55758;SDS011;41678;52.126;20.664;2023-06-26T00:10:13;12.15;;;5.85;;
55758;SDS011;41678;52.126;20.664;2023-06-26T00:15:33;13.05;;;5.97;;
55758;SDS011;41678;52.126;20.664;2023-06-26T00:20:52;15.85;;;7.30;;
55758;SDS011;41678;52.126;20.664;2023-06-26T00:26:12;12.38;;;6.28;;
55758;SDS011;41678;52.126;20.664;2023-06-26T00:31:32;16.00;;;6.85;;
55758;SDS011;41678;52.126;20.664;2023-06-26T00:36:54;14.55;;;6.40;;
55758;SDS011;41678;52.126;20.664;2023-06-26T00:42:13;16.85;;;6.43;;
55758;SDS011;41678;52.126;20.664;2023-06-26T00:47:33;12.85;;;6.05;;
55758;SDS011;41678;52.126;20.664;2023-06-26T00:52:53;16.60;;;6.82;;
55758;SDS011;41678;52.126;20.664;2023-06-26T01:03:33;15.48;;;5.68;;
55758;SDS011;41678;52.126;20.664;2023-06-26T01:08:54;11.60;;;6.15;;
55758;SDS011;41678;52.126;20.664;2023-06-26T01:14:14;13.52;;;6.38;;
55758;SDS011;41678;52.126;20.664;2023-06-26T01:19:33;10.80;;;5.80;;
55758;SDS011;41678;52.126;20.664;2023-06-26T01:24:56;15.50;;;6.35;;
55758;SDS011;41678;52.126;20.664;2023-06-26T01:30:32;10.45;;;5.82;;
55758;SDS011;41678;52.126;20.664;2023-06-26T01:35:56;12.57;;;6.10;;
55758;SDS011;41678;52.126;20.664;2023-06-26T01:41:34;15.82;;;7.50;;
55758;SDS011;41678;52.126;20.664;2023-06-26T01:47:04;16.20;;;5.68;;
55758;SDS011;41678;52.126;20.664;2023-06-26T01:58:00;11.60;;;5.60;;
55758;SDS011;41678;52.126;20.664;2023-06-26T02:03:20;12.70;;;6.70;;
55758;SDS011;41678;52.126;20.664;2023-06-26T02:08:43;15.70;;;6.22;;
55758;SDS011;41678;52.126;20.664;2023-06-26T02:14:02;15.10;;;6.78;;
55758;SDS011;41678;52.126;20.664;2023-06-26T02:19:22;14.77;;;6.10;;
55758;SDS011;41678;52.126;20.664;2023-06-26T02:24:42;11.23;;;6.57;;
55758;SDS011;41678;52.126;20.664;2023-06-26T02:30:02;12.13;;;5.90;;
55758;SDS011;41678;52.126;20.664;2023-06-26T02:35:22;12.27;;;6.38;;
55758;SDS011;41678;52.126;20.664;2023-06-26T02:40:42;11.75;;;6.75;;
55758;SDS011;41678;52.126;20.664;2023-06-26T02:46:02;16.60;;;7.10;;
55758;SDS011;41678;52.126;20.664;2023-06-26T02:51:21;12.63;;;6.53;;
55758;SDS011;41678;52.126;20.664;2023-06-26T02:56:42;13.00;;;6.05;;
55758;SDS011;41678;52.126;20.664;2023-06-26T03:02:02;13.48;;;6.63;;
55758;SDS011;41678;52.126;20.664;2023-06-26T03:07:27;12.80;;;6.20;;
55758;SDS011;41678;52.126;20.664;2023-06-26T03:12:46;13.52;;;6.60;;
55758;SDS011;41678;52.126;20.664;2023-06-26T03:18:06;15.77;;;6.43;;
55758;SDS011;41678;52.126;20.664;2023-06-26T03:23:25;15.30;;;7.00;;
55758;SDS011;41678;52.126;20.664;2023-06-26T03:28:45;13.40;;;6.57;;
55758;SDS011;41678;52.126;20.664;2023-06-26T03:34:05;14.20;;;6.45;;
55758;SDS011;41678;52.126;20.664;2023-06-26T03:39:25;14.18;;;5.88;;
55758;SDS011;41678;52.126;20.664;2023-06-26T03:44:44;14.43;;;6.20;;
55758;SDS011;41678;52.126;20.664;2023-06-26T03:50:05;17.08;;;7.25;;
55758;SDS011;41678;52.126;20.664;2023-06-26T03:55:25;13.32;;;6.75;;
55758;SDS011;41678;52.126;20.664;2023-06-26T04:00:45;12.60;;;6.78;;
55758;SDS011;41678;52.126;20.664;2023-06-26T04:06:06;12.43;;;6.82;;
55758;SDS011;41678;52.126;20.664;2023-06-26T04:11:25;12.73;;;6.25;;
55758;SDS011;41678;52.126;20.664;2023-06-26T04:16:46;18.27;;;6.25;;
55758;SDS011;41678;52.126;20.664;2023-06-26T04:22:05;15.98;;;7.18;;
55758;SDS011;41678;52.126;20.664;2023-06-26T04:27:24;18.55;;;7.18;;
55758;SDS011;41678;52.126;20.664;2023-06-26T04:32:44;19.45;;;6.35;;
55758;SDS011;41678;52.126;20.664;2023-06-26T04:38:04;13.20;;;5.97;;
55758;SDS011;41678;52.126;20.664;2023-06-26T04:43:24;16.80;;;6.90;;
55758;SDS011;41678;52.126;20.664;2023-06-26T04:48:44;14.30;;;6.30;;
55758;SDS011;41678;52.126;20.664;2023-06-26T04:54:04;13.82;;;6.80;;
55758;SDS011;41678;52.126;20.664;2023-06-26T04:59:23;13.50;;;6.72;;
55758;SDS011;41678;52.126;20.664;2023-06-26T05:04:43;13.77;;;6.97;;
55758;SDS011;41678;52.126;20.664;2023-06-26T05:10:04;17.45;;;6.55;;
55758;SDS011;41678;52.126;20.664;2023-06-26T05:15:23;13.15;;;6.32;;
55758;SDS011;41678;52.126;20.664;2023-06-26T05:20:43;12.93;;;6.50;;
55758;SDS011;41678;52.126;20.664;2023-06-26T05:26:04;11.93;;;6.40;;
55758;SDS011;41678;52.126;20.664;2023-06-26T05:31:24;11.23;;;6.65;;
55758;SDS011;41678;52.126;20.664;2023-06-26T05:36:57;16.55;;;8.60;;
55758;SDS011;41678;52.126;20.664;2023-06-26T05:42:18;20.65;;;6.68;;
55758;SDS011;41678;52.126;20.664;2023-06-26T05:47:38;16.10;;;7.20;;
55758;SDS011;41678;52.126;20.664;2023-06-26T05:52:57;15.40;;;6.93;;
55758;SDS011;41678;52.126;20.664;2023-06-26T05:58:17;15.60;;;6.32;;
55758;SDS011;41678;52.126;20.664;2023-06-26T06:03:39;16.65;;;6.28;;
55758;SDS011;41678;52.126;20.664;2023-06-26T06:08:59;16.83;;;7.32;;
55758;SDS011;41678;52.126;20.664;2023-06-26T06:14:19;12.57;;;5.13;;
55758;SDS011;41678;52.126;20.664;2023-06-26T06:19:39;10.55;;;5.50;;
55758;SDS011;41678;52.126;20.664;2023-06-26T06:24:59;15.48;;;5.75;;
55758;SDS011;41678;52.126;20.664;2023-06-26T06:30:20;12.33;;;5.80;;
55758;SDS011;41678;52.126;20.664;2023-06-26T06:35:40;13.70;;;5.78;;
55758;SDS011;41678;52.126;20.664;2023-06-26T06:40:59;13.88;;;5.80;;
55758;SDS011;41678;52.126;20.664;2023-06-26T06:46:19;9.95;;;4.85;;
55758;SDS011;41678;52.126;20.664;2023-06-26T06:51:39;11.40;;;5.20;;
55758;SDS011;41678;52.126;20.664;2023-06-26T06:56:58;13.45;;;4.80;;
55758;SDS011;41678;52.126;20.664;2023-06-26T07:02:18;11.82;;;3.58;;
55758;SDS011;41678;52.126;20.664;2023-06-26T07:07:38;11.05;;;4.90;;
55758;SDS011;41678;52.126;20.664;2023-06-26T07:12:58;13.40;;;6.20;;
55758;SDS011;41678;52.126;20.664;2023-06-26T07:18:18;12.05;;;5.10;;
55758;SDS011;41678;52.126;20.664;2023-06-26T07:23:37;9.23;;;4.13;;
55758;SDS011;41678;52.126;20.664;2023-06-26T07:28:57;10.02;;;4.28;;
55758;SDS011;41678;52.126;20.664;2023-06-26T07:34:16;9.57;;;4.32;;
55758;SDS011;41678;52.126;20.664;2023-06-26T07:39:36;10.02;;;4.65;;
55758;SDS011;41678;52.126;20.664;2023-06-26T07:44:55;11.05;;;3.75;;
55758;SDS011;41678;52.126;20.664;2023-06-26T07:50:15;10.60;;;3.72;;
55758;SDS011;41678;52.126;20.664;2023-06-26T07:55:40;9.77;;;3.90;;
55758;SDS011;41678;52.126;20.664;2023-06-26T08:00:59;13.82;;;4.10;;
55758;SDS011;41678;52.126;20.664;2023-06-26T08:06:19;7.75;;;3.70;;
55758;SDS011;41678;52.126;20.664;2023-06-26T08:11:38;10.30;;;4.35;;
55758;SDS011;41678;52.126;20.664;2023-06-26T08:16:58;8.55;;;4.40;;
55758;SDS011;41678;52.126;20.664;2023-06-26T08:22:19;9.60;;;4.15;;
55758;SDS011;41678;52.126;20.664;2023-06-26T08:27:38;10.40;;;4.10;;
55758;SDS011;41678;52.126;20.664;2023-06-26T08:32:57;10.57;;;4.28;;
55758;SDS011;41678;52.126;20.664;2023-06-26T08:38:17;7.90;;;4.30;;
55758;SDS011;41678;52.126;20.664;2023-06-26T08:43:37;10.20;;;4.50;;
55758;SDS011;41678;52.126;20.664;2023-06-26T08:49:00;9.30;;;3.72;;
55758;SDS011;41678;52.126;20.664;2023-06-26T08:54:22;12.98;;;3.70;;
55758;SDS011;41678;52.126;20.664;2023-06-26T08:59:54;7.60;;;3.40;;
55758;SDS011;41678;52.126;20.664;2023-06-26T09:05:14;9.52;;;3.90;;
55758;SDS011;41678;52.126;20.664;2023-06-26T09:10:34;9.63;;;3.63;;
55758;SDS011;41678;52.126;20.664;2023-06-26T09:15:53;7.50;;;3.72;;
55758;SDS011;41678;52.126;20.664;2023-06-26T09:21:13;8.73;;;3.85;;
55758;SDS011;41678;52.126;20.664;2023-06-26T09:26:35;7.70;;;3.53;;
55758;SDS011;41678;52.126;20.664;2023-06-26T09:31:56;7.38;;;3.28;;
55758;SDS011;41678;52.126;20.664;2023-06-26T09:37:16;8.18;;;3.15;;
55758;SDS011;41678;52.126;20.664;2023-06-26T09:42:36;5.53;;;2.60;;
55758;SDS011;41678;52.126;20.664;2023-06-26T09:47:59;9.02;;;3.20;;
55758;SDS011;41678;52.126;20.664;2023-06-26T09:53:19;7.75;;;3.22;;
55758;SDS011;41678;52.126;20.664;2023-06-26T09:58:39;8.47;;;3.50;;
55758;SDS011;41678;52.126;20.664;2023-06-26T10:04:00;6.50;;;3.17;;
55758;SDS011;41678;52.126;20.664;2023-06-26T10:09:20;7.47;;;3.00;;
55758;SDS011;41678;52.126;20.664;2023-06-26T10:14:41;7.53;;;2.63;;
55758;SDS011;41678;52.126;20.664;2023-06-26T10:20:04;6.70;;;2.45;;
55758;SDS011;41678;52.126;20.664;2023-06-26T10:25:28;8.02;;;2.90;;
55758;SDS011;41678;52.126;20.664;2023-06-26T10:30:50;6.95;;;2.92;;
55758;SDS011;41678;52.126;20.664;2023-06-26T10:36:18;5.78;;;2.53;;
55758;SDS011;41678;52.126;20.664;2023-06-26T10:41:39;8.45;;;2.92;;
55758;SDS011;41678;52.126;20.664;2023-06-26T10:47:01;15.00;;;3.65;;
55758;SDS011;41678;52.126;20.664;2023-06-26T10:52:20;6.82;;;2.42;;
55758;SDS011;41678;52.126;20.664;2023-06-26T10:57:39;5.93;;;2.35;;
55758;SDS011;41678;52.126;20.664;2023-06-26T11:03:22;6.90;;;2.60;;
55758;SDS011;41678;52.126;20.664;2023-06-26T11:14:08;8.55;;;2.80;;
55758;SDS011;41678;52.126;20.664;2023-06-26T11:19:29;5.68;;;2.20;;
55758;SDS011;41678;52.126;20.664;2023-06-26T11:24:49;6.70;;;2.73;;
55758;SDS011;41678;52.126;20.664;2023-06-26T11:30:22;8.15;;;3.15;;
55758;SDS011;41678;52.126;20.664;2023-06-26T11:35:43;10.93;;;2.78;;
55758;SDS011;41678;52.126;20.664;2023-06-26T11:41:02;6.93;;;2.50;;
55758;SDS011;41678;52.126;20.664;2023-06-26T11:46:24;6.47;;;2.70;;
55758;SDS011;41678;52.126;20.664;2023-06-26T11:51:44;7.73;;;3.03;;
55758;SDS011;41678;52.126;20.664;2023-06-26T11:57:06;11.25;;;2.83;;
55758;SDS011;41678;52.126;20.664;2023-06-26T12:02:25;6.03;;;2.78;;
55758;SDS011;41678;52.126;20.664;2023-06-26T12:07:46;6.65;;;3.03;;
55758;SDS011;41678;52.126;20.664;2023-06-26T12:13:08;6.18;;;2.55;;
55758;SDS011;41678;52.126;20.664;2023-06-26T12:18:33;8.40;;;3.30;;
55758;SDS011;41678;52.126;20.664;2023-06-26T12:24:00;10.48;;;3.10;;
55758;SDS011;41678;52.126;20.664;2023-06-26T12:29:20;5.70;;;2.80;;
55758;SDS011;41678;52.126;20.664;2023-06-26T12:34:41;7.13;;;3.00;;
55758;SDS011;41678;52.126;20.664;2023-06-26T12:40:01;8.00;;;3.37;;
55758;SDS011;41678;52.126;20.664;2023-06-26T12:45:23;7.07;;;3.42;;
55758;SDS011;41678;52.126;20.664;2023-06-26T12:50:44;10.95;;;3.22;;
55758;SDS011;41678;52.126;20.664;2023-06-26T13:01:25;8.32;;;2.80;;
55758;SDS011;41678;52.126;20.664;2023-06-26T13:06:46;6.55;;;3.00;;
55758;SDS011;41678;52.126;20.664;2023-06-26T13:12:06;10.90;;;3.30;;
55758;SDS011;41678;52.126;20.664;2023-06-26T13:17:26;8.52;;;3.38;;
55758;SDS011;41678;52.126;20.664;2023-06-26T13:22:45;7.82;;;3.70;;
55758;SDS011;41678;52.126;20.664;2023-06-26T13:28:05;9.70;;;3.47;;
55758;SDS011;41678;52.126;20.664;2023-06-26T13:33:24;8.10;;;3.28;;
55758;SDS011;41678;52.126;20.664;2023-06-26T13:38:45;7.00;;;3.05;;
55758;SDS011;41678;52.126;20.664;2023-06-26T13:44:05;13.57;;;3.33;;
55758;SDS011;41678;52.126;20.664;2023-06-26T13:49:24;11.23;;;3.83;;
55758;SDS011;41678;52.126;20.664;2023-06-26T13:54:44;8.13;;;3.20;;
55758;SDS011;41678;52.126;20.664;2023-06-26T14:00:04;9.30;;;3.33;;
55758;SDS011;41678;52.126;20.664;2023-06-26T14:05:32;7.03;;;3.17;;
55758;SDS011;41678;52.126;20.664;2023-06-26T14:10:52;8.60;;;3.10;;
55758;SDS011;41678;52.126;20.664;2023-06-26T14:16:12;7.43;;;2.83;;
55758;SDS011;41678;52.126;20.664;2023-06-26T14:21:32;8.85;;;3.00;;
55758;SDS011;41678;52.126;20.664;2023-06-26T14:32:12;8.68;;;3.05;;
55758;SDS011;41678;52.126;20.664;2023-06-26T14:37:32;7.00;;;3.33;;
55758;SDS011;41678;52.126;20.664;2023-06-26T14:42:51;10.68;;;3.38;;
55758;SDS011;41678;52.126;20.664;2023-06-26T14:48:12;7.38;;;3.47;;
55758;SDS011;41678;52.126;20.664;2023-06-26T14:53:32;8.05;;;2.85;;
55758;SDS011;41678;52.126;20.664;2023-06-26T14:58:51;6.60;;;2.88;;
55758;SDS011;41678;52.126;20.664;2023-06-26T15:04:11;6.20;;;2.65;;
55758;SDS011;41678;52.126;20.664;2023-06-26T15:09:31;6.82;;;3.08;;
55758;SDS011;41678;52.126;20.664;2023-06-26T15:14:51;6.38;;;3.00;;
55758;SDS011;41678;52.126;20.664;2023-06-26T15:20:11;5.27;;;2.53;;
55758;SDS011;41678;52.126;20.664;2023-06-26T15:25:31;8.15;;;3.13;;
55758;SDS011;41678;52.126;20.664;2023-06-26T15:30:51;6.82;;;3.00;;
55758;SDS011;41678;52.126;20.664;2023-06-26T15:36:10;6.30;;;3.20;;
55758;SDS011;41678;52.126;20.664;2023-06-26T15:41:30;11.73;;;3.20;;
55758;SDS011;41678;52.126;20.664;2023-06-26T15:46:49;7.55;;;3.38;;
55758;SDS011;41678;52.126;20.664;2023-06-26T15:52:09;12.73;;;3.53;;
55758;SDS011;41678;52.126;20.664;2023-06-26T15:57:30;8.03;;;3.10;;
55758;SDS011;41678;52.126;20.664;2023-06-26T16:02:50;7.72;;;3.10;;
55758;SDS011;41678;52.126;20.664;2023-06-26T16:08:10;9.90;;;3.10;;
55758;SDS011;41678;52.126;20.664;2023-06-26T16:13:30;8.55;;;3.15;;
55758;SDS011;41678;52.126;20.664;2023-06-26T16:18:50;10.70;;;3.17;;
55758;SDS011;41678;52.126;20.664;2023-06-26T16:24:10;17.00;;;3.55;;
55758;SDS011;41678;52.126;20.664;2023-06-26T16:29:29;9.73;;;3.42;;
55758;SDS011;41678;52.126;20.664;2023-06-26T16:34:48;6.80;;;3.00;;
55758;SDS011;41678;52.126;20.664;2023-06-26T16:40:08;12.73;;;3.05;;
55758;SDS011;41678;52.126;20.664;2023-06-26T16:45:28;6.45;;;2.95;;
55758;SDS011;41678;52.126;20.664;2023-06-26T16:50:48;10.77;;;2.88;;
55758;SDS011;41678;52.126;20.664;2023-06-26T16:56:08;8.17;;;3.73;;
55758;SDS011;41678;52.126;20.664;2023-06-26T17:01:28;5.70;;;2.83;;
55758;SDS011;41678;52.126;20.664;2023-06-26T17:06:47;8.70;;;2.90;;
55758;SDS011;41678;52.126;20.664;2023-06-26T17:12:07;11.05;;;2.70;;
55758;SDS011;41678;52.126;20.664;2023-06-26T17:17:27;5.35;;;2.30;;
55758;SDS011;41678;52.126;20.664;2023-06-26T17:22:47;7.38;;;2.47;;
55758;SDS011;41678;52.126;20.664;2023-06-26T17:28:06;7.30;;;3.17;;
55758;SDS011;41678;52.126;20.664;2023-06-26T17:33:26;6.30;;;2.97;;
55758;SDS011;41678;52.126;20.664;2023-06-26T17:38:46;6.80;;;2.92;;
55758;SDS011;41678;52.126;20.664;2023-06-26T17:44:05;7.25;;;2.80;;
55758;SDS011;41678;52.126;20.664;2023-06-26T17:49:25;12.48;;;3.13;;
55758;SDS011;41678;52.126;20.664;2023-06-26T17:54:45;9.55;;;3.05;;
55758;SDS011;41678;52.126;20.664;2023-06-26T18:00:06;7.33;;;2.87;;
55758;SDS011;41678;52.126;20.664;2023-06-26T18:05:31;6.97;;;2.92;;
55758;SDS011;41678;52.126;20.664;2023-06-26T18:10:51;5.88;;;2.63;;
55758;SDS011;41678;52.126;20.664;2023-06-26T18:16:11;9.77;;;3.40;;
55758;SDS011;41678;52.126;20.664;2023-06-26T18:21:31;7.72;;;2.97;;
55758;SDS011;41678;52.126;20.664;2023-06-26T18:26:51;6.43;;;3.15;;
55758;SDS011;41678;52.126;20.664;2023-06-26T18:32:10;7.10;;;3.40;;
55758;SDS011;41678;52.126;20.664;2023-06-26T18:37:30;7.20;;;3.03;;
55758;SDS011;41678;52.126;20.664;2023-06-26T18:42:49;11.07;;;3.17;;
55758;SDS011;41678;52.126;20.664;2023-06-26T18:48:10;6.97;;;3.10;;
55758;SDS011;41678;52.126;20.664;2023-06-26T18:53:29;12.47;;;3.00;;
55758;SDS011;41678;52.126;20.664;2023-06-26T18:58:49;10.30;;;3.30;;
55758;SDS011;41678;52.126;20.664;2023-06-26T19:04:08;9.27;;;3.42;;
55758;SDS011;41678;52.126;20.664;2023-06-26T19:09:28;7.72;;;3.50;;
55758;SDS011;41678;52.126;20.664;2023-06-26T19:14:49;8.48;;;3.22;;
55758;SDS011;41678;52.126;20.664;2023-06-26T19:20:10;7.75;;;3.15;;
55758;SDS011;41678;52.126;20.664;2023-06-26T19:25:31;9.45;;;3.60;;
55758;SDS011;41678;52.126;20.664;2023-06-26T19:30:50;14.32;;;4.00;;
55758;SDS011;41678;52.126;20.664;2023-06-26T19:36:11;7.90;;;3.60;;
55758;SDS011;41678;52.126;20.664;2023-06-26T19:41:32;19.50;;;4.43;;
55758;SDS011;41678;52.126;20.664;2023-06-26T19:46:51;10.93;;;3.85;;
55758;SDS011;41678;52.126;20.664;2023-06-26T19:52:11;8.57;;;3.97;;
55758;SDS011;41678;52.126;20.664;2023-06-26T19:57:32;10.85;;;4.65;;
55758;SDS011;41678;52.126;20.664;2023-06-26T20:02:51;12.55;;;4.13;;
55758;SDS011;41678;52.126;20.664;2023-06-26T20:08:11;12.90;;;4.45;;
55758;SDS011;41678;52.126;20.664;2023-06-26T20:13:30;11.18;;;4.30;;
55758;SDS011;41678;52.126;20.664;2023-06-26T20:18:50;10.23;;;4.10;;
55758;SDS011;41678;52.126;20.664;2023-06-26T20:29:30;15.20;;;4.43;;
55758;SDS011;41678;52.126;20.664;2023-06-26T20:34:50;10.97;;;4.73;;
55758;SDS011;41678;52.126;20.664;2023-06-26T20:40:10;10.07;;;4.63;;
55758;SDS011;41678;52.126;20.664;2023-06-26T20:45:31;9.88;;;4.78;;
55758;SDS011;41678;52.126;20.664;2023-06-26T20:50:50;12.37;;;5.10;;
55758;SDS011;41678;52.126;20.664;2023-06-26T20:56:11;14.73;;;4.53;;
55758;SDS011;41678;52.126;20.664;2023-06-26T21:01:31;10.70;;;4.33;;
55758;SDS011;41678;52.126;20.664;2023-06-26T21:06:50;12.73;;;4.95;;
55758;SDS011;41678;52.126;20.664;2023-06-26T21:12:10;12.73;;;4.47;;
55758;SDS011;41678;52.126;20.664;2023-06-26T21:17:29;11.77;;;4.72;;
55758;SDS011;41678;52.126;20.664;2023-06-26T21:22:49;13.32;;;5.10;;
55758;SDS011;41678;52.126;20.664;2023-06-26T21:28:09;11.05;;;4.72;;
55758;SDS011;41678;52.126;20.664;2023-06-26T21:33:28;17.63;;;5.00;;
55758;SDS011;41678;52.126;20.664;2023-06-26T21:38:49;20.45;;;5.65;;
55758;SDS011;41678;52.126;20.664;2023-06-26T21:44:09;12.25;;;5.10;;
55758;SDS011;41678;52.126;20.664;2023-06-26T21:49:28;11.20;;;4.65;;
55758;SDS011;41678;52.126;20.664;2023-06-26T21:54:48;13.18;;;4.70;;
55758;SDS011;41678;52.126;20.664;2023-06-26T22:00:07;12.63;;;4.93;;
55758;SDS011;41678;52.126;20.664;2023-06-26T22:05:31;12.50;;;5.28;;
55758;SDS011;41678;52.126;20.664;2023-06-26T22:10:50;14.00;;;5.13;;
55758;SDS011;41678;52.126;20.664;2023-06-26T22:16:11;9.40;;;5.00;;
55758;SDS011;41678;52.126;20.664;2023-06-26T22:21:30;11.57;;;5.07;;
55758;SDS011;41678;52.126;20.664;2023-06-26T22:26:50;9.18;;;5.35;;
55758;SDS011;41678;52.126;20.664;2023-06-26T22:32:09;11.93;;;5.97;;
55758;SDS011;41678;52.126;20.664;2023-06-26T22:37:29;14.63;;;5.47;;
55758;SDS011;41678;52.126;20.664;2023-06-26T22:42:48;15.73;;;6.07;;
55758;SDS011;41678;52.126;20.664;2023-06-26T22:48:08;12.55;;;5.28;;
55758;SDS011;41678;52.126;20.664;2023-06-26T22:53:28;13.93;;;5.50;;
55758;SDS011;41678;52.126;20.664;2023-06-26T22:58:48;10.98;;;5.28;;
55758;SDS011;41678;52.126;20.664;2023-06-26T23:04:08;15.77;;;5.50;;
55758;SDS011;41678;52.126;20.664;2023-06-26T23:09:29;13.27;;;6.10;;
55758;SDS011;41678;52.126;20.664;2023-06-26T23:14:48;12.10;;;6.03;;
55758;SDS011;41678;52.126;20.664;2023-06-26T23:20:08;15.13;;;7.32;;
55758;SDS011;41678;52.126;20.664;2023-06-26T23:25:30;12.63;;;5.97;;
55758;SDS011;41678;52.126;20.664;2023-06-26T23:30:53;11.32;;;5.30;;
55758;SDS011;41678;52.126;20.664;2023-06-26T23:36:12;11.18;;;5.65;;
55758;SDS011;41678;52.126;20.664;2023-06-26T23:41:34;16.98;;;6.55;;
55758;SDS011;41678;52.126;20.664;2023-06-26T23:46:53;13.45;;;5.90;;
55758;SDS011;41678;52.126;20.664;2023-06-26T23:52:13;14.10;;;5.70;;
55758;SDS011;41678;52.126;20.664;2023-06-26T23:57:32;11.75;;;5.18;;
